sensor_id;sensor_type;location;lat;lon;timestamp;P1;durP1;ratioP1;P2;durP2;ratioP2
5507;SDS011;2776;51.046;6.772;2023-05-07T00:01:35;7.90;;;6.53;;
5507;SDS011;2776;51.046;6.772;2023-05-07T00:04:03;7.20;;;5.97;;
5507;SDS011;2776;51.046;6.772;2023-05-07T00:06:31;7.73;;;6.93;;
5507;SDS011;2776;51.046;6.772;2023-05-07T00:08:58;8.87;;;6.03;;
5507;SDS011;2776;51.046;6.772;2023-05-07T00:11:25;5.90;;;5.30;;
5507;SDS011;2776;51.046;6.772;2023-05-07T00:13:53;6.00;;;5.13;;
5507;SDS011;2776;51.046;6.772;2023-05-07T00:16:20;9.53;;;7.10;;
5507;SDS011;2776;51.046;6.772;2023-05-07T00:18:47;7.47;;;5.00;;
5507;SDS011;2776;51.046;6.772;2023-05-07T00:21:15;5.00;;;4.50;;
5507;SDS011;2776;51.046;6.772;2023-05-07T00:23:41;5.47;;;4.67;;
5507;SDS011;2776;51.046;6.772;2023-05-07T00:26:08;5.83;;;5.13;;
5507;SDS011;2776;51.046;6.772;2023-05-07T00:28:35;5.73;;;4.57;;
5507;SDS011;2776;51.046;6.772;2023-05-07T00:31:02;5.53;;;4.50;;
5507;SDS011;2776;51.046;6.772;2023-05-07T00:33:29;5.33;;;4.63;;
5507;SDS011;2776;51.046;6.772;2023-05-07T00:35:55;7.93;;;4.73;;
5507;SDS011;2776;51.046;6.772;2023-05-07T00:38:23;6.17;;;4.60;;
5507;SDS011;2776;51.046;6.772;2023-05-07T00:40:50;5.70;;;4.90;;
5507;SDS011;2776;51.046;6.772;2023-05-07T00:43:17;5.20;;;4.70;;
5507;SDS011;2776;51.046;6.772;2023-05-07T00:45:43;8.77;;;4.77;;
5507;SDS011;2776;51.046;6.772;2023-05-07T00:48:10;7.47;;;4.40;;
5507;SDS011;2776;51.046;6.772;2023-05-07T00:50:37;5.70;;;4.20;;
5507;SDS011;2776;51.046;6.772;2023-05-07T00:53:04;5.87;;;4.90;;
5507;SDS011;2776;51.046;6.772;2023-05-07T00:55:34;5.03;;;4.53;;
5507;SDS011;2776;51.046;6.772;2023-05-07T00:58:02;5.30;;;4.53;;
5507;SDS011;2776;51.046;6.772;2023-05-07T01:00:29;8.20;;;4.50;;
5507;SDS011;2776;51.046;6.772;2023-05-07T01:02:56;4.73;;;3.90;;
5507;SDS011;2776;51.046;6.772;2023-05-07T01:05:23;4.97;;;4.43;;
5507;SDS011;2776;51.046;6.772;2023-05-07T01:07:50;5.83;;;4.90;;
5507;SDS011;2776;51.046;6.772;2023-05-07T01:10:20;6.30;;;4.83;;
5507;SDS011;2776;51.046;6.772;2023-05-07T01:12:49;5.60;;;5.10;;
5507;SDS011;2776;51.046;6.772;2023-05-07T01:15:17;6.83;;;5.20;;
5507;SDS011;2776;51.046;6.772;2023-05-07T01:17:44;8.23;;;5.00;;
5507;SDS011;2776;51.046;6.772;2023-05-07T01:20:11;8.07;;;5.20;;
5507;SDS011;2776;51.046;6.772;2023-05-07T01:22:40;5.77;;;4.53;;
5507;SDS011;2776;51.046;6.772;2023-05-07T01:25:08;9.80;;;5.10;;
5507;SDS011;2776;51.046;6.772;2023-05-07T01:27:35;7.03;;;4.67;;
5507;SDS011;2776;51.046;6.772;2023-05-07T01:30:02;4.80;;;4.40;;
5507;SDS011;2776;51.046;6.772;2023-05-07T01:32:32;5.20;;;4.70;;
5507;SDS011;2776;51.046;6.772;2023-05-07T01:35:01;4.60;;;4.13;;
5507;SDS011;2776;51.046;6.772;2023-05-07T01:37:31;6.13;;;4.23;;
5507;SDS011;2776;51.046;6.772;2023-05-07T01:39:59;5.20;;;3.90;;
5507;SDS011;2776;51.046;6.772;2023-05-07T01:42:27;5.47;;;4.20;;
5507;SDS011;2776;51.046;6.772;2023-05-07T01:44:55;4.70;;;4.20;;
5507;SDS011;2776;51.046;6.772;2023-05-07T01:47:22;5.93;;;4.37;;
5507;SDS011;2776;51.046;6.772;2023-05-07T01:49:50;3.97;;;3.57;;
5507;SDS011;2776;51.046;6.772;2023-05-07T01:52:16;5.10;;;4.03;;
5507;SDS011;2776;51.046;6.772;2023-05-07T01:54:43;4.77;;;3.53;;
5507;SDS011;2776;51.046;6.772;2023-05-07T01:57:11;5.50;;;4.27;;
5507;SDS011;2776;51.046;6.772;2023-05-07T01:59:38;4.40;;;4.00;;
5507;SDS011;2776;51.046;6.772;2023-05-07T02:02:05;4.43;;;3.67;;
5507;SDS011;2776;51.046;6.772;2023-05-07T02:04:31;5.53;;;3.60;;
5507;SDS011;2776;51.046;6.772;2023-05-07T02:06:58;3.90;;;3.60;;
5507;SDS011;2776;51.046;6.772;2023-05-07T02:09:25;5.27;;;3.57;;
5507;SDS011;2776;51.046;6.772;2023-05-07T02:11:51;6.30;;;3.50;;
5507;SDS011;2776;51.046;6.772;2023-05-07T02:14:19;5.57;;;3.90;;
5507;SDS011;2776;51.046;6.772;2023-05-07T02:16:46;3.70;;;3.40;;
5507;SDS011;2776;51.046;6.772;2023-05-07T02:19:13;3.90;;;3.57;;
5507;SDS011;2776;51.046;6.772;2023-05-07T02:21:40;5.10;;;3.77;;
5507;SDS011;2776;51.046;6.772;2023-05-07T02:24:07;6.73;;;4.27;;
5507;SDS011;2776;51.046;6.772;2023-05-07T02:26:33;5.40;;;3.83;;
5507;SDS011;2776;51.046;6.772;2023-05-07T02:29:00;4.50;;;3.93;;
5507;SDS011;2776;51.046;6.772;2023-05-07T02:31:28;4.63;;;4.03;;
5507;SDS011;2776;51.046;6.772;2023-05-07T02:33:55;5.17;;;3.57;;
5507;SDS011;2776;51.046;6.772;2023-05-07T02:36:21;4.63;;;3.43;;
5507;SDS011;2776;51.046;6.772;2023-05-07T02:38:48;6.50;;;4.90;;
5507;SDS011;2776;51.046;6.772;2023-05-07T02:41:15;5.30;;;3.43;;
5507;SDS011;2776;51.046;6.772;2023-05-07T02:43:42;4.27;;;3.30;;
5507;SDS011;2776;51.046;6.772;2023-05-07T02:46:08;3.40;;;3.10;;
5507;SDS011;2776;51.046;6.772;2023-05-07T02:48:37;4.17;;;3.73;;
5507;SDS011;2776;51.046;6.772;2023-05-07T02:51:04;4.30;;;3.90;;
5507;SDS011;2776;51.046;6.772;2023-05-07T02:53:31;5.20;;;3.77;;
5507;SDS011;2776;51.046;6.772;2023-05-07T02:55:58;4.30;;;3.90;;
5507;SDS011;2776;51.046;6.772;2023-05-07T02:58:25;5.50;;;3.70;;
5507;SDS011;2776;51.046;6.772;2023-05-07T03:00:52;5.07;;;3.70;;
5507;SDS011;2776;51.046;6.772;2023-05-07T03:03:19;4.03;;;3.63;;
5507;SDS011;2776;51.046;6.772;2023-05-07T03:05:48;4.37;;;3.90;;
5507;SDS011;2776;51.046;6.772;2023-05-07T03:08:14;4.77;;;3.97;;
5507;SDS011;2776;51.046;6.772;2023-05-07T03:10:41;5.13;;;4.37;;
5507;SDS011;2776;51.046;6.772;2023-05-07T03:13:08;4.47;;;4.00;;
5507;SDS011;2776;51.046;6.772;2023-05-07T03:15:35;5.30;;;4.30;;
5507;SDS011;2776;51.046;6.772;2023-05-07T03:18:01;5.70;;;3.60;;
5507;SDS011;2776;51.046;6.772;2023-05-07T03:20:28;4.57;;;4.03;;
5507;SDS011;2776;51.046;6.772;2023-05-07T03:22:56;4.73;;;3.43;;
5507;SDS011;2776;51.046;6.772;2023-05-07T03:25:23;3.37;;;3.10;;
5507;SDS011;2776;51.046;6.772;2023-05-07T03:27:50;4.03;;;3.13;;
5507;SDS011;2776;51.046;6.772;2023-05-07T03:30:17;3.70;;;3.30;;
5507;SDS011;2776;51.046;6.772;2023-05-07T03:32:43;3.90;;;3.50;;
5507;SDS011;2776;51.046;6.772;2023-05-07T03:35:10;4.80;;;3.60;;
5507;SDS011;2776;51.046;6.772;2023-05-07T03:37:37;5.23;;;3.60;;
5507;SDS011;2776;51.046;6.772;2023-05-07T03:40:06;4.53;;;3.70;;
5507;SDS011;2776;51.046;6.772;2023-05-07T03:42:35;3.63;;;3.27;;
5507;SDS011;2776;51.046;6.772;2023-05-07T03:45:01;3.80;;;3.30;;
5507;SDS011;2776;51.046;6.772;2023-05-07T03:47:29;3.30;;;3.00;;
5507;SDS011;2776;51.046;6.772;2023-05-07T03:49:55;5.53;;;3.60;;
5507;SDS011;2776;51.046;6.772;2023-05-07T03:52:22;3.70;;;3.40;;
5507;SDS011;2776;51.046;6.772;2023-05-07T03:54:51;4.13;;;3.60;;
5507;SDS011;2776;51.046;6.772;2023-05-07T03:57:19;3.93;;;3.50;;
5507;SDS011;2776;51.046;6.772;2023-05-07T03:59:46;4.67;;;3.60;;
5507;SDS011;2776;51.046;6.772;2023-05-07T04:02:13;5.47;;;3.93;;
5507;SDS011;2776;51.046;6.772;2023-05-07T04:04:39;4.17;;;3.73;;
5507;SDS011;2776;51.046;6.772;2023-05-07T04:07:06;4.77;;;4.20;;
5507;SDS011;2776;51.046;6.772;2023-05-07T04:09:33;6.40;;;4.00;;
5507;SDS011;2776;51.046;6.772;2023-05-07T04:11:59;4.93;;;4.00;;
5507;SDS011;2776;51.046;6.772;2023-05-07T04:14:28;8.00;;;4.40;;
5507;SDS011;2776;51.046;6.772;2023-05-07T04:16:57;6.33;;;3.73;;
5507;SDS011;2776;51.046;6.772;2023-05-07T04:19:24;4.33;;;4.03;;
5507;SDS011;2776;51.046;6.772;2023-05-07T04:21:50;3.87;;;3.53;;
5507;SDS011;2776;51.046;6.772;2023-05-07T04:24:17;4.57;;;4.00;;
5507;SDS011;2776;51.046;6.772;2023-05-07T04:26:44;4.27;;;3.80;;
5507;SDS011;2776;51.046;6.772;2023-05-07T04:29:10;6.00;;;4.13;;
5507;SDS011;2776;51.046;6.772;2023-05-07T04:31:39;5.03;;;3.90;;
5507;SDS011;2776;51.046;6.772;2023-05-07T04:34:05;4.30;;;3.90;;
5507;SDS011;2776;51.046;6.772;2023-05-07T04:36:32;3.60;;;3.30;;
5507;SDS011;2776;51.046;6.772;2023-05-07T04:38:59;4.87;;;3.70;;
5507;SDS011;2776;51.046;6.772;2023-05-07T04:41:26;4.17;;;3.70;;
5507;SDS011;2776;51.046;6.772;2023-05-07T04:43:53;3.83;;;3.53;;
5507;SDS011;2776;51.046;6.772;2023-05-07T04:46:20;4.83;;;3.60;;
5507;SDS011;2776;51.046;6.772;2023-05-07T04:48:48;3.90;;;3.10;;
5507;SDS011;2776;51.046;6.772;2023-05-07T04:51:15;3.60;;;2.80;;
5507;SDS011;2776;51.046;6.772;2023-05-07T04:53:41;3.47;;;2.97;;
5507;SDS011;2776;51.046;6.772;2023-05-07T04:56:08;4.20;;;2.77;;
5507;SDS011;2776;51.046;6.772;2023-05-07T04:58:35;2.33;;;2.13;;
5507;SDS011;2776;51.046;6.772;2023-05-07T05:01:02;4.27;;;2.67;;
5507;SDS011;2776;51.046;6.772;2023-05-07T05:03:29;2.20;;;2.00;;
5507;SDS011;2776;51.046;6.772;2023-05-07T05:05:57;2.43;;;2.20;;
5507;SDS011;2776;51.046;6.772;2023-05-07T05:08:25;3.40;;;2.07;;
5507;SDS011;2776;51.046;6.772;2023-05-07T05:10:52;3.07;;;2.23;;
5507;SDS011;2776;51.046;6.772;2023-05-07T05:13:18;2.30;;;2.10;;
5507;SDS011;2776;51.046;6.772;2023-05-07T05:15:46;2.60;;;2.00;;
5507;SDS011;2776;51.046;6.772;2023-05-07T05:18:12;3.03;;;1.90;;
5507;SDS011;2776;51.046;6.772;2023-05-07T05:20:39;2.30;;;2.03;;
5507;SDS011;2776;51.046;6.772;2023-05-07T05:23:07;2.73;;;2.00;;
5507;SDS011;2776;51.046;6.772;2023-05-07T05:25:34;3.00;;;2.33;;
5507;SDS011;2776;51.046;6.772;2023-05-07T05:28:02;3.77;;;2.43;;
5507;SDS011;2776;51.046;6.772;2023-05-07T05:30:29;2.77;;;2.20;;
5507;SDS011;2776;51.046;6.772;2023-05-07T05:32:55;3.80;;;2.40;;
5507;SDS011;2776;51.046;6.772;2023-05-07T05:35:22;3.20;;;2.63;;
5507;SDS011;2776;51.046;6.772;2023-05-07T05:37:49;2.83;;;2.63;;
5507;SDS011;2776;51.046;6.772;2023-05-07T05:40:17;3.33;;;2.70;;
5507;SDS011;2776;51.046;6.772;2023-05-07T05:42:44;3.30;;;3.00;;
5507;SDS011;2776;51.046;6.772;2023-05-07T05:45:11;3.13;;;2.87;;
5507;SDS011;2776;51.046;6.772;2023-05-07T05:47:37;3.30;;;3.00;;
5507;SDS011;2776;51.046;6.772;2023-05-07T05:50:05;6.13;;;2.87;;
5507;SDS011;2776;51.046;6.772;2023-05-07T05:52:32;3.13;;;2.83;;
5507;SDS011;2776;51.046;6.772;2023-05-07T05:54:59;4.27;;;2.90;;
5507;SDS011;2776;51.046;6.772;2023-05-07T05:57:27;3.53;;;2.70;;
5507;SDS011;2776;51.046;6.772;2023-05-07T05:59:54;4.40;;;2.60;;
5507;SDS011;2776;51.046;6.772;2023-05-07T06:02:21;3.33;;;2.63;;
5507;SDS011;2776;51.046;6.772;2023-05-07T06:04:48;3.90;;;2.57;;
5507;SDS011;2776;51.046;6.772;2023-05-07T06:07:15;2.70;;;2.50;;
5507;SDS011;2776;51.046;6.772;2023-05-07T06:09:41;2.63;;;2.27;;
5507;SDS011;2776;51.046;6.772;2023-05-07T06:12:08;2.47;;;2.27;;
5507;SDS011;2776;51.046;6.772;2023-05-07T06:14:36;3.10;;;2.50;;
5507;SDS011;2776;51.046;6.772;2023-05-07T06:17:03;2.97;;;2.10;;
5507;SDS011;2776;51.046;6.772;2023-05-07T06:19:30;3.73;;;2.33;;
5507;SDS011;2776;51.046;6.772;2023-05-07T06:21:57;5.10;;;2.40;;
5507;SDS011;2776;51.046;6.772;2023-05-07T06:24:23;3.73;;;2.03;;
5507;SDS011;2776;51.046;6.772;2023-05-07T06:26:50;2.78;;;1.92;;
5507;SDS011;2776;51.046;6.772;2023-05-07T06:29:17;1.85;;;1.75;;
5507;SDS011;2776;51.046;6.772;2023-05-07T06:31:45;2.22;;;2.03;;
5507;SDS011;2776;51.046;6.772;2023-05-07T06:34:12;1.93;;;1.73;;
5507;SDS011;2776;51.046;6.772;2023-05-07T06:36:40;3.13;;;1.73;;
5507;SDS011;2776;51.046;6.772;2023-05-07T06:39:06;1.80;;;1.70;;
5507;SDS011;2776;51.046;6.772;2023-05-07T06:41:33;2.65;;;1.90;;
5507;SDS011;2776;51.046;6.772;2023-05-07T06:44:00;3.72;;;2.00;;
5507;SDS011;2776;51.046;6.772;2023-05-07T06:46:27;1.83;;;1.73;;
5507;SDS011;2776;51.046;6.772;2023-05-07T06:48:56;1.92;;;1.60;;
5507;SDS011;2776;51.046;6.772;2023-05-07T06:51:23;2.05;;;1.85;;
5507;SDS011;2776;51.046;6.772;2023-05-07T06:53:50;2.30;;;1.50;;
5507;SDS011;2776;51.046;6.772;2023-05-07T06:56:17;2.22;;;2.03;;
5507;SDS011;2776;51.046;6.772;2023-05-07T06:58:43;3.88;;;1.63;;
5507;SDS011;2776;51.046;6.772;2023-05-07T07:01:10;2.70;;;1.90;;
5507;SDS011;2776;51.046;6.772;2023-05-07T07:03:37;2.25;;;1.58;;
5507;SDS011;2776;51.046;6.772;2023-05-07T07:06:05;1.70;;;1.60;;
5507;SDS011;2776;51.046;6.772;2023-05-07T07:08:32;2.13;;;1.48;;
5507;SDS011;2776;51.046;6.772;2023-05-07T07:10:59;1.60;;;1.50;;
5507;SDS011;2776;51.046;6.772;2023-05-07T07:13:26;1.40;;;1.30;;
5507;SDS011;2776;51.046;6.772;2023-05-07T07:15:53;2.60;;;1.40;;
5507;SDS011;2776;51.046;6.772;2023-05-07T07:18:19;3.38;;;1.40;;
5507;SDS011;2776;51.046;6.772;2023-05-07T07:20:46;2.15;;;1.50;;
5507;SDS011;2776;51.046;6.772;2023-05-07T07:23:14;3.55;;;1.67;;
5507;SDS011;2776;51.046;6.772;2023-05-07T07:25:41;1.98;;;1.30;;
5507;SDS011;2776;51.046;6.772;2023-05-07T07:28:08;1.92;;;1.58;;
5507;SDS011;2776;51.046;6.772;2023-05-07T07:30:35;1.83;;;1.30;;
5507;SDS011;2776;51.046;6.772;2023-05-07T07:33:02;1.80;;;1.35;;
5507;SDS011;2776;51.046;6.772;2023-05-07T07:35:30;2.67;;;1.75;;
5507;SDS011;2776;51.046;6.772;2023-05-07T07:37:57;2.22;;;1.50;;
5507;SDS011;2776;51.046;6.772;2023-05-07T07:40:25;2.22;;;1.40;;
5507;SDS011;2776;51.046;6.772;2023-05-07T07:42:52;3.38;;;1.60;;
5507;SDS011;2776;51.046;6.772;2023-05-07T07:45:19;1.98;;;1.25;;
5507;SDS011;2776;51.046;6.772;2023-05-07T07:47:46;1.75;;;1.33;;
5507;SDS011;2776;51.046;6.772;2023-05-07T07:50:13;1.60;;;1.33;;
5507;SDS011;2776;51.046;6.772;2023-05-07T07:52:39;3.50;;;1.52;;
5507;SDS011;2776;51.046;6.772;2023-05-07T07:55:06;2.45;;;1.50;;
5507;SDS011;2776;51.046;6.772;2023-05-07T07:57:35;1.80;;;1.55;;
5507;SDS011;2776;51.046;6.772;2023-05-07T08:00:02;1.60;;;1.50;;
5507;SDS011;2776;51.046;6.772;2023-05-07T08:02:31;2.88;;;1.73;;
5507;SDS011;2776;51.046;6.772;2023-05-07T08:04:58;1.58;;;1.40;;
5507;SDS011;2776;51.046;6.772;2023-05-07T08:07:24;3.53;;;1.60;;
5507;SDS011;2776;51.046;6.772;2023-05-07T08:09:51;1.77;;;1.65;;
5507;SDS011;2776;51.046;6.772;2023-05-07T08:12:18;2.13;;;1.40;;
5507;SDS011;2776;51.046;6.772;2023-05-07T08:14:46;2.22;;;1.60;;
5507;SDS011;2776;51.046;6.772;2023-05-07T08:17:13;3.80;;;1.48;;
5507;SDS011;2776;51.046;6.772;2023-05-07T08:19:40;2.55;;;1.60;;
5507;SDS011;2776;51.046;6.772;2023-05-07T08:22:07;2.67;;;1.58;;
5507;SDS011;2776;51.046;6.772;2023-05-07T08:24:35;1.63;;;1.52;;
5507;SDS011;2776;51.046;6.772;2023-05-07T08:27:02;1.65;;;1.55;;
5507;SDS011;2776;51.046;6.772;2023-05-07T08:29:29;2.58;;;1.63;;
5507;SDS011;2776;51.046;6.772;2023-05-07T08:31:57;2.97;;;1.52;;
5507;SDS011;2776;51.046;6.772;2023-05-07T08:34:23;2.83;;;1.38;;
5507;SDS011;2776;51.046;6.772;2023-05-07T08:36:50;1.40;;;1.23;;
5507;SDS011;2776;51.046;6.772;2023-05-07T08:39:17;1.55;;;1.20;;
5507;SDS011;2776;51.046;6.772;2023-05-07T08:41:44;2.70;;;1.13;;
5507;SDS011;2776;51.046;6.772;2023-05-07T08:44:12;2.33;;;1.20;;
5507;SDS011;2776;51.046;6.772;2023-05-07T08:46:40;2.70;;;1.10;;
5507;SDS011;2776;51.046;6.772;2023-05-07T08:49:09;1.83;;;1.27;;
5507;SDS011;2776;51.046;6.772;2023-05-07T08:51:36;1.60;;;1.35;;
5507;SDS011;2776;51.046;6.772;2023-05-07T08:54:03;1.95;;;1.33;;
5507;SDS011;2776;51.046;6.772;2023-05-07T08:56:32;1.55;;;1.38;;
5507;SDS011;2776;51.046;6.772;2023-05-07T08:58:58;1.35;;;1.20;;
5507;SDS011;2776;51.046;6.772;2023-05-07T09:01:25;1.52;;;1.40;;
5507;SDS011;2776;51.046;6.772;2023-05-07T09:03:52;1.80;;;1.40;;
5507;SDS011;2776;51.046;6.772;2023-05-07T09:06:21;1.40;;;1.30;;
5507;SDS011;2776;51.046;6.772;2023-05-07T09:08:50;1.88;;;1.10;;
5507;SDS011;2776;51.046;6.772;2023-05-07T09:11:19;2.60;;;1.27;;
5507;SDS011;2776;51.046;6.772;2023-05-07T09:13:47;2.53;;;1.20;;
5507;SDS011;2776;51.046;6.772;2023-05-07T09:16:15;3.15;;;1.30;;
5507;SDS011;2776;51.046;6.772;2023-05-07T09:18:41;2.88;;;1.25;;
5507;SDS011;2776;51.046;6.772;2023-05-07T09:21:12;2.60;;;1.50;;
5507;SDS011;2776;51.046;6.772;2023-05-07T09:23:43;2.65;;;1.38;;
5507;SDS011;2776;51.046;6.772;2023-05-07T09:26:10;2.10;;;1.40;;
5507;SDS011;2776;51.046;6.772;2023-05-07T09:28:38;1.55;;;1.45;;
5507;SDS011;2776;51.046;6.772;2023-05-07T09:31:06;2.13;;;1.60;;
5507;SDS011;2776;51.046;6.772;2023-05-07T09:33:33;1.98;;;1.50;;
5507;SDS011;2776;51.046;6.772;2023-05-07T09:36:01;1.60;;;1.30;;
5507;SDS011;2776;51.046;6.772;2023-05-07T09:38:30;1.98;;;1.50;;
5507;SDS011;2776;51.046;6.772;2023-05-07T09:41:04;1.73;;;1.42;;
5507;SDS011;2776;51.046;6.772;2023-05-07T09:43:32;2.53;;;1.38;;
5507;SDS011;2776;51.046;6.772;2023-05-07T09:46:01;1.77;;;1.52;;
5507;SDS011;2776;51.046;6.772;2023-05-07T09:48:29;3.10;;;1.17;;
5507;SDS011;2776;51.046;6.772;2023-05-07T09:50:57;1.45;;;1.35;;
5507;SDS011;2776;51.046;6.772;2023-05-07T09:53:26;1.45;;;1.30;;
5507;SDS011;2776;51.046;6.772;2023-05-07T09:55:55;1.45;;;1.35;;
5507;SDS011;2776;51.046;6.772;2023-05-07T09:58:24;1.40;;;1.30;;
5507;SDS011;2776;51.046;6.772;2023-05-07T10:00:52;2.58;;;1.40;;
5507;SDS011;2776;51.046;6.772;2023-05-07T10:03:19;1.65;;;1.35;;
5507;SDS011;2776;51.046;6.772;2023-05-07T10:05:48;2.92;;;1.38;;
5507;SDS011;2776;51.046;6.772;2023-05-07T10:08:17;1.83;;;1.50;;
5507;SDS011;2776;51.046;6.772;2023-05-07T10:10:45;2.25;;;1.40;;
5507;SDS011;2776;51.046;6.772;2023-05-07T10:13:12;1.77;;;1.20;;
5507;SDS011;2776;51.046;6.772;2023-05-07T10:15:40;1.88;;;1.40;;
5507;SDS011;2776;51.046;6.772;2023-05-07T10:18:07;3.28;;;1.33;;
5507;SDS011;2776;51.046;6.772;2023-05-07T10:20:34;3.05;;;1.70;;
5507;SDS011;2776;51.046;6.772;2023-05-07T10:23:03;2.45;;;1.50;;
5507;SDS011;2776;51.046;6.772;2023-05-07T10:25:32;2.08;;;1.50;;
5507;SDS011;2776;51.046;6.772;2023-05-07T10:27:59;1.95;;;1.33;;
5507;SDS011;2776;51.046;6.772;2023-05-07T10:30:32;3.65;;;1.65;;
5507;SDS011;2776;51.046;6.772;2023-05-07T10:33:06;2.08;;;1.27;;
5507;SDS011;2776;51.046;6.772;2023-05-07T10:35:36;1.52;;;1.35;;
5507;SDS011;2776;51.046;6.772;2023-05-07T10:38:05;1.75;;;1.20;;
5507;SDS011;2776;51.046;6.772;2023-05-07T10:40:33;1.50;;;1.40;;
5507;SDS011;2776;51.046;6.772;2023-05-07T10:43:00;1.20;;;1.00;;
5507;SDS011;2776;51.046;6.772;2023-05-07T10:45:30;1.35;;;1.20;;
5507;SDS011;2776;51.046;6.772;2023-05-07T10:48:08;2.88;;;1.00;;
5507;SDS011;2776;51.046;6.772;2023-05-07T10:50:36;3.08;;;1.42;;
5507;SDS011;2776;51.046;6.772;2023-05-07T10:53:22;1.02;;;1.00;;
5507;SDS011;2776;51.046;6.772;2023-05-07T10:55:51;2.83;;;1.48;;
5507;SDS011;2776;51.046;6.772;2023-05-07T10:58:54;2.90;;;1.55;;
5507;SDS011;2776;51.046;6.772;2023-05-07T11:04:17;1.20;;;1.10;;
5507;SDS011;2776;51.046;6.772;2023-05-07T11:09:58;1.83;;;1.23;;
5507;SDS011;2776;51.046;6.772;2023-05-07T11:12:49;2.05;;;1.60;;
5507;SDS011;2776;51.046;6.772;2023-05-07T11:15:33;1.80;;;1.30;;
5507;SDS011;2776;51.046;6.772;2023-05-07T11:18:09;1.15;;;1.05;;
5507;SDS011;2776;51.046;6.772;2023-05-07T11:20:44;2.08;;;1.20;;
5507;SDS011;2776;51.046;6.772;2023-05-07T11:26:12;1.75;;;1.20;;
5507;SDS011;2776;51.046;6.772;2023-05-07T11:28:41;1.23;;;1.00;;
5507;SDS011;2776;51.046;6.772;2023-05-07T11:31:09;1.55;;;1.00;;
5507;SDS011;2776;51.046;6.772;2023-05-07T11:33:37;1.40;;;0.90;;
5507;SDS011;2776;51.046;6.772;2023-05-07T11:36:05;1.55;;;0.80;;
5507;SDS011;2776;51.046;6.772;2023-05-07T11:38:34;1.17;;;1.08;;
5507;SDS011;2776;51.046;6.772;2023-05-07T11:41:02;0.95;;;0.93;;
5507;SDS011;2776;51.046;6.772;2023-05-07T11:43:30;2.03;;;1.10;;
5507;SDS011;2776;51.046;6.772;2023-05-07T11:46:05;1.58;;;1.10;;
5507;SDS011;2776;51.046;6.772;2023-05-07T11:48:33;1.13;;;0.90;;
5507;SDS011;2776;51.046;6.772;2023-05-07T11:51:00;1.20;;;1.08;;
5507;SDS011;2776;51.046;6.772;2023-05-07T11:53:34;2.17;;;1.27;;
5507;SDS011;2776;51.046;6.772;2023-05-07T11:56:05;1.23;;;0.88;;
5507;SDS011;2776;51.046;6.772;2023-05-07T11:58:32;2.28;;;1.00;;
5507;SDS011;2776;51.046;6.772;2023-05-07T12:00:59;1.42;;;1.10;;
5507;SDS011;2776;51.046;6.772;2023-05-07T12:03:27;3.78;;;1.30;;
5507;SDS011;2776;51.046;6.772;2023-05-07T12:05:54;1.92;;;1.10;;
5507;SDS011;2776;51.046;6.772;2023-05-07T12:08:21;1.20;;;1.10;;
5507;SDS011;2776;51.046;6.772;2023-05-07T12:10:48;1.20;;;0.93;;
5507;SDS011;2776;51.046;6.772;2023-05-07T12:13:16;1.98;;;1.30;;
5507;SDS011;2776;51.046;6.772;2023-05-07T12:15:43;3.20;;;1.02;;
5507;SDS011;2776;51.046;6.772;2023-05-07T12:18:10;2.05;;;1.30;;
5507;SDS011;2776;51.046;6.772;2023-05-07T12:20:39;2.17;;;1.30;;
5507;SDS011;2776;51.046;6.772;2023-05-07T12:23:06;1.40;;;0.90;;
5507;SDS011;2776;51.046;6.772;2023-05-07T12:25:34;1.63;;;1.40;;
5507;SDS011;2776;51.046;6.772;2023-05-07T12:28:01;2.25;;;1.30;;
5507;SDS011;2776;51.046;6.772;2023-05-07T12:30:29;2.10;;;1.08;;
5507;SDS011;2776;51.046;6.772;2023-05-07T12:32:56;1.42;;;1.17;;
5507;SDS011;2776;51.046;6.772;2023-05-07T12:35:27;1.65;;;1.25;;
5507;SDS011;2776;51.046;6.772;2023-05-07T12:37:56;1.45;;;1.13;;
5507;SDS011;2776;51.046;6.772;2023-05-07T12:40:25;1.30;;;1.10;;
5507;SDS011;2776;51.046;6.772;2023-05-07T12:43:01;1.92;;;1.15;;
5507;SDS011;2776;51.046;6.772;2023-05-07T12:45:28;1.73;;;1.50;;
5507;SDS011;2776;51.046;6.772;2023-05-07T12:47:54;2.67;;;1.20;;
5507;SDS011;2776;51.046;6.772;2023-05-07T12:50:22;1.42;;;1.23;;
5507;SDS011;2776;51.046;6.772;2023-05-07T12:52:49;2.08;;;1.33;;
5507;SDS011;2776;51.046;6.772;2023-05-07T12:55:17;1.25;;;1.15;;
5507;SDS011;2776;51.046;6.772;2023-05-07T12:57:45;2.72;;;1.10;;
5507;SDS011;2776;51.046;6.772;2023-05-07T13:00:15;1.35;;;1.25;;
5507;SDS011;2776;51.046;6.772;2023-05-07T13:02:43;1.63;;;1.33;;
5507;SDS011;2776;51.046;6.772;2023-05-07T13:05:11;1.38;;;1.27;;
5507;SDS011;2776;51.046;6.772;2023-05-07T13:07:38;1.23;;;1.13;;
5507;SDS011;2776;51.046;6.772;2023-05-07T13:10:06;1.58;;;1.20;;
5507;SDS011;2776;51.046;6.772;2023-05-07T13:12:35;1.25;;;1.10;;
5507;SDS011;2776;51.046;6.772;2023-05-07T13:15:01;2.90;;;1.45;;
5507;SDS011;2776;51.046;6.772;2023-05-07T13:17:28;1.48;;;1.17;;
5507;SDS011;2776;51.046;6.772;2023-05-07T13:19:56;1.55;;;1.13;;
5507;SDS011;2776;51.046;6.772;2023-05-07T13:22:22;1.48;;;1.38;;
5507;SDS011;2776;51.046;6.772;2023-05-07T13:24:49;2.45;;;1.58;;
5507;SDS011;2776;51.046;6.772;2023-05-07T13:27:16;2.45;;;1.40;;
5507;SDS011;2776;51.046;6.772;2023-05-07T13:29:45;1.90;;;1.70;;
5507;SDS011;2776;51.046;6.772;2023-05-07T13:32:12;2.35;;;1.55;;
5507;SDS011;2776;51.046;6.772;2023-05-07T13:34:38;2.42;;;1.60;;
5507;SDS011;2776;51.046;6.772;2023-05-07T13:37:05;1.65;;;1.48;;
5507;SDS011;2776;51.046;6.772;2023-05-07T13:39:32;3.30;;;1.60;;
5507;SDS011;2776;51.046;6.772;2023-05-07T13:41:59;2.50;;;1.50;;
5507;SDS011;2776;51.046;6.772;2023-05-07T13:44:26;1.40;;;1.30;;
5507;SDS011;2776;51.046;6.772;2023-05-07T13:46:54;3.00;;;1.60;;
5507;SDS011;2776;51.046;6.772;2023-05-07T13:49:21;2.95;;;1.50;;
5507;SDS011;2776;51.046;6.772;2023-05-07T13:51:48;1.70;;;1.60;;
5507;SDS011;2776;51.046;6.772;2023-05-07T13:54:15;1.95;;;1.73;;
5507;SDS011;2776;51.046;6.772;2023-05-07T13:56:42;3.75;;;2.33;;
5507;SDS011;2776;51.046;6.772;2023-05-07T13:59:08;2.30;;;2.08;;
5507;SDS011;2776;51.046;6.772;2023-05-07T14:01:35;2.90;;;2.22;;
5507;SDS011;2776;51.046;6.772;2023-05-07T14:04:03;4.30;;;2.42;;
5507;SDS011;2776;51.046;6.772;2023-05-07T14:06:30;4.80;;;2.58;;
5507;SDS011;2776;51.046;6.772;2023-05-07T14:08:57;3.42;;;2.50;;
5507;SDS011;2776;51.046;6.772;2023-05-07T14:11:25;3.90;;;3.00;;
5507;SDS011;2776;51.046;6.772;2023-05-07T14:13:51;2.90;;;2.30;;
5507;SDS011;2776;51.046;6.772;2023-05-07T14:16:18;4.07;;;2.38;;
5507;SDS011;2776;51.046;6.772;2023-05-07T14:18:45;3.75;;;2.58;;
5507;SDS011;2776;51.046;6.772;2023-05-07T14:21:13;3.25;;;2.65;;
5507;SDS011;2776;51.046;6.772;2023-05-07T14:23:40;3.15;;;2.83;;
5507;SDS011;2776;51.046;6.772;2023-05-07T14:26:06;3.58;;;3.25;;
5507;SDS011;2776;51.046;6.772;2023-05-07T14:28:33;4.90;;;3.42;;
5507;SDS011;2776;51.046;6.772;2023-05-07T14:31:00;2.70;;;2.45;;
5507;SDS011;2776;51.046;6.772;2023-05-07T14:33:27;1.55;;;1.38;;
5507;SDS011;2776;51.046;6.772;2023-05-07T14:35:53;3.28;;;1.10;;
5507;SDS011;2776;51.046;6.772;2023-05-07T14:38:21;2.88;;;1.33;;
5507;SDS011;2776;51.046;6.772;2023-05-07T14:40:48;4.65;;;1.70;;
5507;SDS011;2776;51.046;6.772;2023-05-07T14:43:15;3.40;;;1.20;;
5507;SDS011;2776;51.046;6.772;2023-05-07T14:45:42;2.30;;;1.88;;
5507;SDS011;2776;51.046;6.772;2023-05-07T14:48:08;2.65;;;1.88;;
5507;SDS011;2776;51.046;6.772;2023-05-07T14:50:39;2.00;;;1.63;;
5507;SDS011;2776;51.046;6.772;2023-05-07T14:53:07;3.00;;;2.38;;
5507;SDS011;2776;51.046;6.772;2023-05-07T14:55:35;2.63;;;2.42;;
5507;SDS011;2776;51.046;6.772;2023-05-07T14:58:01;3.75;;;2.67;;
5507;SDS011;2776;51.046;6.772;2023-05-07T15:00:28;2.72;;;2.33;;
5507;SDS011;2776;51.046;6.772;2023-05-07T15:02:55;3.80;;;2.13;;
5507;SDS011;2776;51.046;6.772;2023-05-07T15:05:28;2.38;;;2.17;;
5507;SDS011;2776;51.046;6.772;2023-05-07T15:07:54;3.30;;;1.90;;
5507;SDS011;2776;51.046;6.772;2023-05-07T15:10:21;2.53;;;1.75;;
5507;SDS011;2776;51.046;6.772;2023-05-07T15:12:49;2.13;;;1.80;;
5507;SDS011;2776;51.046;6.772;2023-05-07T15:15:16;2.10;;;1.90;;
5507;SDS011;2776;51.046;6.772;2023-05-07T15:17:43;2.33;;;2.13;;
5507;SDS011;2776;51.046;6.772;2023-05-07T15:20:10;2.95;;;1.90;;
5507;SDS011;2776;51.046;6.772;2023-05-07T15:22:37;3.05;;;2.10;;
5507;SDS011;2776;51.046;6.772;2023-05-07T15:25:04;2.50;;;1.92;;
5507;SDS011;2776;51.046;6.772;2023-05-07T15:27:31;2.58;;;1.92;;